Time;durP1;ratioP1;P1;durP2;ratioP2;P2;SDS_P1;SDS_P2;PMS_P1;PMS_P2;Temp;Humidity;BMP_temperature;BMP_pressure;BME280_temperature;BME280_humidity;BME280_pressure;Samples;Min_cycle;Max_cycle;Signal;HPM_P1;HPM_P2
2022/03/19 00:00:58;;;;;;;156.20;99.00;;;;;;;0.07;53.30;103093.64;109206;1265;23765;-76
2022/03/19 00:03:36;;;;;;;147.40;93.90;;;;;;;0.11;53.30;103096.66;108709;1270;25006;-76
2022/03/19 00:06:13;;;;;;;145.70;92.40;;;;;;;0.15;53.26;103100.06;108488;1273;23616;-76
2022/03/19 00:09:00;;;;;;;157.10;96.70;;;;;;;0.17;53.32;103101.91;108339;1279;23073;-76
2022/03/19 00:11:43;;;;;;;155.40;99.30;;;;;;;0.19;53.29;103094.94;108324;1279;21993;-76
2022/03/19 00:14:16;;;;;;;161.90;101.10;;;;;;;0.21;53.20;103093.51;108337;1276;22001;-76
2022/03/19 00:16:56;;;;;;;149.20;94.50;;;;;;;0.23;53.14;103094.52;108348;1277;22869;-76
2022/03/19 00:19:31;;;;;;;151.80;94.20;;;;;;;0.23;53.10;103092.26;108312;1279;23205;-75
2022/03/19 00:22:01;;;;;;;154.20;91.70;;;;;;;0.24;53.06;103092.41;108201;1276;23664;-76
2022/03/19 00:24:38;;;;;;;146.80;91.50;;;;;;;0.25;53.03;103088.75;108368;1276;21991;-76
2022/03/19 00:27:11;;;;;;;147.70;89.60;;;;;;;0.25;53.03;103083.89;108501;1270;24975;-76
2022/03/19 00:29:43;;;;;;;146.20;91.50;;;;;;;0.27;53.12;103083.84;108750;1268;24325;-76
2022/03/19 00:32:16;;;;;;;138.70;87.10;;;;;;;0.28;53.10;103083.13;108941;1267;21998;-76
2022/03/19 00:35:02;;;;;;;140.30;89.80;;;;;;;0.29;53.15;103084.48;108729;1270;23089;-76
2022/03/19 00:37:53;;;;;;;145.00;87.00;;;;;;;0.30;53.21;103079.79;108662;1270;21999;-76
2022/03/19 00:40:25;;;;;;;148.90;89.10;;;;;;;0.32;53.25;103079.21;108528;1270;21948;-76
2022/03/19 00:42:58;;;;;;;135.80;88.80;;;;;;;0.34;53.29;103080.38;108355;1276;22011;-76
2022/03/19 00:45:35;;;;;;;143.90;90.20;;;;;;;0.35;53.23;103077.92;108367;1276;22430;-76
2022/03/19 00:48:13;;;;;;;145.00;88.80;;;;;;;0.37;53.21;103082.21;108523;1273;22850;-76
2022/03/19 00:50:55;;;;;;;146.50;91.10;;;;;;;0.38;53.33;103081.84;108543;1273;23444;-75
2022/03/19 00:53:29;;;;;;;140.80;88.90;;;;;;;0.40;53.35;103079.39;108631;1270;21979;-76
2022/03/19 00:56:18;;;;;;;145.90;90.90;;;;;;;0.42;53.40;103080.04;108740;1270;21985;-75
2022/03/19 00:59:12;;;;;;;141.00;91.20;;;;;;;0.45;53.44;103080.13;108719;1270;23712;-76
2022/03/19 01:02:02;;;;;;;148.40;93.30;;;;;;;0.47;53.37;103079.74;109039;1264;23174;-76
2022/03/19 01:05:00;;;;;;;148.20;90.40;;;;;;;0.48;53.36;103075.05;109017;1264;22847;-75
2022/03/19 01:07:55;;;;;;;144.90;91.30;;;;;;;0.48;53.35;103073.64;108939;1266;23176;-76
2022/03/19 01:10:35;;;;;;;170.70;94.90;;;;;;;0.49;53.36;103074.67;109246;1263;22157;-76
2022/03/19 01:13:14;;;;;;;145.70;92.70;;;;;;;0.50;53.36;103073.98;109286;1264;21972;-76
2022/03/19 01:15:49;;;;;;;153.50;96.30;;;;;;;0.52;53.47;103075.80;109204;1264;22232;-76
2022/03/19 01:18:43;;;;;;;151.30;93.30;;;;;;;0.54;53.47;103072.83;109378;1264;21975;-77
2022/03/19 01:21:37;;;;;;;155.80;92.70;;;;;;;0.54;53.49;103073.35;109336;1261;23673;-77
2022/03/19 01:24:19;;;;;;;143.50;90.00;;;;;;;0.54;53.55;103071.95;108988;1267;23809;-77
2022/03/19 01:27:08;;;;;;;138.00;88.90;;;;;;;0.54;53.50;103070.21;108936;1267;22002;-77
2022/03/19 01:30:00;;;;;;;138.50;88.40;;;;;;;0.53;53.46;103069.89;109084;1267;23728;-77
2022/03/19 01:32:52;;;;;;;130.80;86.60;;;;;;;0.54;53.55;103072.64;108733;1270;23714;-77
2022/03/19 01:35:35;;;;;;;137.30;89.60;;;;;;;0.56;53.79;103073.47;108375;1273;23577;-77
2022/03/19 01:38:27;;;;;;;132.40;87.10;;;;;;;0.59;53.91;103073.55;108386;1276;22793;-77
2022/03/19 01:41:17;;;;;;;132.80;85.10;;;;;;;0.61;53.98;103070.23;108225;1279;23095;-78
2022/03/19 01:44:01;;;;;;;138.00;88.10;;;;;;;0.62;54.06;103067.41;108196;1276;21975;-77
2022/03/19 01:47:03;;;;;;;134.30;86.60;;;;;;;0.66;54.13;103066.80;107995;1281;22001;-77
2022/03/19 01:50:03;;;;;;;148.40;88.80;;;;;;;0.70;54.22;103066.02;108319;1275;22122;-77
2022/03/19 01:52:56;;;;;;;125.10;84.40;;;;;;;0.70;54.10;103062.02;108578;1270;22103;-78
2022/03/19 01:55:41;;;;;;;139.50;87.70;;;;;;;0.70;54.09;103061.15;108803;1270;22004;-77
2022/03/19 01:58:41;;;;;;;137.60;90.00;;;;;;;0.70;54.13;103061.52;108886;1264;23621;-77
2022/03/19 02:01:24;;;;;;;138.20;88.70;;;;;;;0.68;54.12;103061.20;108868;1267;23694;-77
2022/03/19 02:04:02;;;;;;;138.10;88.30;;;;;;;0.67;54.11;103056.20;108939;1264;21972;-78
2022/03/19 02:06:40;;;;;;;136.80;89.60;;;;;;;0.65;54.05;103051.91;109334;1261;23583;-78
2022/03/19 02:09:14;;;;;;;141.50;90.00;;;;;;;0.62;54.03;103049.55;108901;1267;22030;-77
2022/03/19 02:11:44;;;;;;;140.20;90.80;;;;;;;0.61;54.16;103054.27;108984;1267;23599;-77
2022/03/19 02:14:19;;;;;;;137.30;91.20;;;;;;;0.60;54.22;103052.21;109137;1267;23731;-76
2022/03/19 02:16:58;;;;;;;129.50;86.10;;;;;;;0.56;54.19;103055.43;108974;1267;23647;-76
2022/03/19 02:20:08;;;;;;;138.30;88.90;;;;;;;0.54;54.41;103052.19;108692;1269;23111;-76
2022/03/19 02:25:35;;;;;;;144.70;88.40;;;;;;;0.51;54.55;103053.65;108822;1270;21978;-76
2022/03/19 02:25:49;;;;;;;138.90;86.20;;;;;;;0.48;54.65;103053.55;108850;1270;21997;-76
2022/03/19 02:28:46;;;;;;;135.60;85.10;;;;;;;0.43;54.68;103053.13;109204;1264;23070;-75
2022/03/19 02:31:26;;;;;;;137.80;87.50;;;;;;;0.41;54.74;103053.02;109248;1263;21993;-76
2022/03/19 02:34:13;;;;;;;135.40;84.90;;;;;;;0.38;54.77;103054.46;108885;1268;21991;-76
2022/03/19 02:36:55;;;;;;;130.60;84.80;;;;;;;0.36;54.80;103052.79;108757;1267;23585;-76
2022/03/19 02:39:37;;;;;;;125.80;82.40;;;;;;;0.34;54.93;103054.04;108462;1273;22111;-77
2022/03/19 02:42:24;;;;;;;132.80;85.60;;;;;;;0.33;55.11;103055.63;108599;1273;22380;-83
2022/03/19 02:45:06;;;;;;;126.40;83.50;;;;;;;0.32;55.27;103050.09;108563;1270;23056;-76
2022/03/19 02:47:58;;;;;;;127.10;84.10;;;;;;;0.31;55.24;103048.23;108718;1270;23213;-75
2022/03/19 02:50:39;;;;;;;134.50;80.00;;;;;;;0.27;55.45;103046.05;108780;1270;21984;-76
2022/03/19 02:53:12;;;;;;;124.00;79.90;;;;;;;0.24;55.57;103048.73;109369;1264;21977;-76
2022/03/19 02:55:42;;;;;;;130.00;83.10;;;;;;;0.17;55.57;103047.48;109122;1264;23335;-76
2022/03/19 02:58:17;;;;;;;123.60;81.50;;;;;;;0.11;55.66;103047.29;109786;1257;21963;-76
2022/03/19 03:00:52;;;;;;;119.80;80.40;;;;;;;0.03;55.67;103047.46;109929;1256;24294;-76
2022/03/19 03:03:26;;;;;;;124.80;82.70;;;;;;;-0.06;55.77;103050.61;109414;1261;23588;-76
2022/03/19 03:06:11;;;;;;;118.00;79.90;;;;;;;-0.14;55.92;103052.68;109450;1261;21970;-76
2022/03/19 03:08:59;;;;;;;118.90;77.60;;;;;;;-0.22;56.09;103048.69;109502;1262;22747;-77
2022/03/19 03:11:32;;;;;;;120.20;80.70;;;;;;;-0.28;56.36;103046.91;109518;1261;23104;-77
2022/03/19 03:14:10;;;;;;;122.70;81.40;;;;;;;-0.31;56.57;103048.18;109579;1261;21979;-77
2022/03/19 03:16:48;;;;;;;131.20;81.60;;;;;;;-0.33;56.80;103044.41;108869;1267;23001;-77
2022/03/19 03:19:20;;;;;;;;;;;;;;;-0.36;56.89;103046.73;108880;1267;22006;-77
2022/03/19 03:22:08;;;;;;;128.90;80.50;;;;;;;-0.45;56.99;103050.89;109100;1264;23071;-76
2022/03/19 03:24:41;;;;;;;128.10;81.10;;;;;;;-0.50;57.22;103048.90;108863;1268;21988;-76
2022/03/19 03:27:20;;;;;;;124.50;79.00;;;;;;;-0.50;57.45;103047.52;108944;1267;21986;-76
2022/03/19 03:30:00;;;;;;;120.40;79.00;;;;;;;-0.49;57.60;103044.39;108893;1267;23162;-77
2022/03/19 03:32:32;;;;;;;;;;;;;;;-0.50;57.65;103040.09;109030;1267;24155;-76
2022/03/19 03:35:02;;;;;;;120.50;76.30;;;;;;;-0.58;57.90;103042.67;108905;1267;24309;-76
2022/03/19 03:37:35;;;;;;;116.00;78.40;;;;;;;-0.63;58.01;103043.11;108895;1267;21999;-76
2022/03/19 03:40:18;;;;;;;113.00;78.20;;;;;;;-0.66;58.20;103040.91;109086;1267;23164;-77
2022/03/19 03:42:50;;;;;;;114.40;77.30;;;;;;;-0.69;58.40;103038.89;109316;1264;21988;-76
2022/03/19 03:45:25;;;;;;;121.70;78.70;;;;;;;-0.72;58.53;103037.38;109569;1263;21971;-77
2022/03/19 03:48:01;;;;;;;128.40;81.00;;;;;;;-0.75;58.67;103036.41;108867;1266;23312;-76
2022/03/19 03:50:39;;;;;;;118.70;79.70;;;;;;;-0.75;58.85;103038.50;109581;1261;21988;-75
2022/03/19 03:53:10;;;;;;;121.60;79.00;;;;;;;-0.74;59.00;103037.77;109576;1261;22974;-76
2022/03/19 03:55:44;;;;;;;122.20;82.40;;;;;;;-0.70;59.26;103037.19;109541;1261;22021;-76
2022/03/19 03:58:14;;;;;;;125.00;80.10;;;;;;;-0.66;59.26;103036.75;109738;1262;21977;-76
2022/03/19 04:00:56;;;;;;;130.40;83.40;;;;;;;-0.61;59.35;103035.63;109636;1262;22010;-77
2022/03/19 04:03:41;;;;;;;122.30;82.10;;;;;;;-0.54;59.59;103034.81;109329;1265;22029;-76
2022/03/19 04:06:20;;;;;;;118.50;79.50;;;;;;;-0.47;59.74;103037.62;109396;1261;22030;-76
2022/03/19 04:09:25;;;;;;;122.80;79.40;;;;;;;-0.39;59.77;103035.20;109504;1262;23685;-75
2022/03/19 04:11:56;;;;;;;120.50;78.60;;;;;;;-0.33;59.91;103033.86;109405;1262;23832;-77
2022/03/19 04:14:59;;;;;;;118.00;77.70;;;;;;;-0.29;59.83;103036.70;109524;1262;22023;-77
2022/03/19 04:17:40;;;;;;;120.10;80.10;;;;;;;-0.25;59.88;103039.73;109832;1260;22131;-77
2022/03/19 04:20:22;;;;;;;128.40;85.20;;;;;;;-0.23;59.93;103036.42;109188;1265;22379;-76
2022/03/19 04:23:05;;;;;;;141.40;88.40;;;;;;;-0.21;59.90;103036.38;109344;1263;22006;-77
2022/03/19 04:25:43;;;;;;;158.20;98.30;;;;;;;-0.19;59.93;103040.48;109518;1262;23655;-76
2022/03/19 04:28:22;;;;;;;187.90;124.30;;;;;;;-0.17;59.91;103042.70;108953;1265;24045;-77
2022/03/19 04:31:00;;;;;;;165.30;106.40;;;;;;;-0.15;59.88;103038.33;108924;1264;24685;-77
2022/03/19 04:34:17;;;;;;;132.90;88.00;;;;;;;-0.14;59.83;103034.49;109187;1264;23157;-81
2022/03/19 04:37:50;;;;;;;136.40;88.40;;;;;;;-0.13;59.77;103032.91;109321;1264;22436;-79
2022/03/19 04:40:36;;;;;;;149.70;92.50;;;;;;;-0.10;59.72;103035.62;109604;1264;22025;-78
2022/03/19 04:43:18;;;;;;;148.10;96.40;;;;;;;-0.04;59.64;103038.42;109014;1267;21980;-79
2022/03/19 04:45:57;;;;;;;145.00;93.30;;;;;;;0.03;59.67;103040.70;109242;1264;23066;-76
2022/03/19 04:48:30;;;;;;;146.30;92.40;;;;;;;0.13;59.58;103046.54;109512;1264;22029;-76
2022/03/19 04:51:00;;;;;;;154.70;94.00;;;;;;;0.20;59.57;103048.28;109477;1264;23833;-76
2022/03/19 04:53:29;;;;;;;151.70;92.70;;;;;;;0.28;59.51;103047.92;109205;1264;22944;-76
2022/03/19 04:56:06;;;;;;;127.20;84.70;;;;;;;0.35;59.46;103046.21;109217;1265;23046;-76
2022/03/19 04:58:37;;;;;;;128.20;84.70;;;;;;;0.43;59.50;103044.82;109204;1264;22204;-76
2022/03/19 05:01:06;;;;;;;123.30;80.90;;;;;;;0.50;59.44;103042.92;109434;1257;22932;-77
2022/03/19 05:03:40;;;;;;;110.30;72.60;;;;;;;0.59;59.30;103045.48;110054;1259;21961;-77
2022/03/19 05:06:15;;;;;;;97.40;68.90;;;;;;;0.65;59.28;103044.80;110035;1258;22081;-77
2022/03/19 05:11:12;;;;;;;110.80;73.20;;;;;;;0.71;58.92;103046.91;110213;1258;24292;-77
2022/03/19 05:11:41;;;;;;;132.00;89.70;;;;;;;0.76;58.49;103046.61;110078;1258;23035;-77
2022/03/19 05:14:12;;;;;;;137.00;86.60;;;;;;;0.81;58.01;103049.46;110167;1258;21968;-77
2022/03/19 05:16:44;;;;;;;;;;;;;;;0.84;57.64;103056.83;110024;1258;21954;-76
2022/03/19 05:19:14;;;;;;;123.00;80.90;;;;;;;0.81;57.60;103058.11;110195;1258;21964;-76
2022/03/19 05:21:43;;;;;;;105.00;66.20;;;;;;;0.80;57.45;103063.16;109457;1262;23069;-76
2022/03/19 05:24:16;;;;;;;79.20;56.90;;;;;;;0.84;57.28;103065.49;108973;1267;21976;-77
2022/03/19 05:26:49;;;;;;;77.10;54.30;;;;;;;0.90;56.89;103069.33;109102;1267;22239;-77
2022/03/19 05:29:22;;;;;;;95.20;65.00;;;;;;;0.95;56.54;103068.35;108704;1273;22922;-77
2022/03/19 05:31:52;;;;;;;130.20;76.70;;;;;;;0.97;55.93;103075.23;108411;1276;22082;-77
2022/03/19 05:34:31;;;;;;;103.40;63.60;;;;;;;0.98;55.24;103084.23;108320;1277;24336;-77
2022/03/19 05:37:05;;;;;;;93.20;64.80;;;;;;;0.97;54.78;103083.73;108410;1276;24312;-77
2022/03/19 05:39:36;;;;;;;90.00;65.20;;;;;;;0.97;54.29;103087.55;108340;1276;22003;-77
2022/03/19 05:42:15;;;;;;;89.90;65.60;;;;;;;0.98;53.95;103089.63;108355;1276;22316;-77
2022/03/19 05:44:46;;;;;;;87.10;65.20;;;;;;;0.98;53.45;103089.95;108374;1276;23717;-76
2022/03/19 05:47:16;;;;;;;92.00;70.50;;;;;;;0.94;53.13;103089.89;108357;1277;22210;-75
2022/03/19 05:49:47;;;;;;;90.80;69.30;;;;;;;0.93;52.95;103094.25;108582;1269;23698;-76
2022/03/19 05:52:17;;;;;;;92.80;68.00;;;;;;;0.93;52.85;103094.42;108718;1271;23168;-75
2022/03/19 05:54:46;;;;;;;90.50;66.70;;;;;;;0.95;52.73;103094.20;108830;1267;21970;-76
2022/03/19 05:57:21;;;;;;;86.20;63.50;;;;;;;0.97;52.59;103096.40;109292;1261;23713;-76
2022/03/19 05:59:53;;;;;;;86.50;66.20;;;;;;;1.03;52.68;103096.09;109748;1260;22966;-76
2022/03/19 06:02:23;;;;;;;81.80;62.70;;;;;;;1.10;52.71;103095.73;109567;1261;22848;-76
2022/03/19 06:04:55;;;;;;;81.70;61.50;;;;;;;1.22;52.72;103098.04;109295;1261;22905;-77
2022/03/19 06:07:27;;;;;;;78.50;59.70;;;;;;;1.34;52.52;103101.16;109393;1261;22016;-78
2022/03/19 06:10:11;;;;;;;79.40;55.60;;;;;;;1.46;52.19;103100.18;109624;1259;21965;-76
2022/03/19 06:12:54;;;;;;;72.20;55.40;;;;;;;1.55;51.90;103105.82;109791;1261;22942;-77
2022/03/19 06:16:01;;;;;;;79.90;55.00;;;;;;;1.65;51.84;103107.27;110189;1256;23158;-77
2022/03/19 06:18:45;;;;;;;78.00;55.30;;;;;;;1.80;51.70;103111.54;110223;1256;21978;-76
2022/03/19 06:21:27;;;;;;;67.00;53.20;;;;;;;1.89;51.10;103111.48;110035;1256;23613;-77
2022/03/19 06:23:59;;;;;;;77.30;55.90;;;;;;;1.95;50.82;103113.75;110216;1259;21977;-76
2022/03/19 06:26:36;;;;;;;71.70;55.70;;;;;;;1.97;50.41;103115.08;110061;1256;23719;-77
2022/03/19 06:29:08;;;;;;;79.40;54.90;;;;;;;2.00;50.33;103111.67;109940;1262;23586;-76
2022/03/19 06:31:40;;;;;;;70.70;52.60;;;;;;;2.08;50.36;103115.79;109384;1262;23611;-78
2022/03/19 06:34:15;;;;;;;64.20;51.10;;;;;;;2.17;50.35;103115.17;109275;1264;23640;-76
2022/03/19 06:40:08;;;;;;;;;;;;;;;;;;;;;
2022/03/19 06:42:43;;;;;;;58.40;46.50;;;;;;;2.57;50.22;103123.86;109025;1267;24324;-76
2022/03/19 06:45:15;;;;;;;54.60;43.50;;;;;;;2.80;50.15;103123.68;108921;1268;22006;-78
2022/03/19 06:47:58;;;;;;;51.20;41.70;;;;;;;3.06;49.93;103127.14;109067;1264;23071;-78
2022/03/19 06:50:37;;;;;;;57.50;43.30;;;;;;;3.37;49.67;103132.20;109328;1265;21978;-76
2022/03/19 06:53:15;;;;;;;50.30;38.20;;;;;;;3.71;49.44;103132.56;109372;1261;21968;-77
2022/03/19 06:57:09;;;;;;;50.70;39.10;;;;;;;4.18;49.38;103136.77;109349;1261;22043;-77
2022/03/19 07:00:39;;;;;;;46.60;35.60;;;;;;;5.06;48.06;103137.27;109743;1262;21968;-76
2022/03/19 07:03:19;;;;;;;44.40;36.10;;;;;;;5.48;45.92;103139.89;109453;1262;23518;-77
2022/03/19 07:05:57;;;;;;;48.10;35.90;;;;;;;5.78;45.28;103139.27;109743;1257;23026;-76
2022/03/19 07:08:57;;;;;;;45.80;35.70;;;;;;;6.33;44.99;103141.00;110155;1258;23793;-87
2022/03/19 07:11:41;;;;;;;46.80;34.80;;;;;;;6.79;44.29;103142.61;110396;1257;23061;-79
2022/03/19 07:14:22;;;;;;;40.30;33.80;;;;;;;7.20;42.92;103144.23;110121;1259;22940;-77
2022/03/19 07:17:14;;;;;;;43.40;34.80;;;;;;;7.54;42.10;103145.52;109389;1267;22003;-80
2022/03/19 07:20:15;;;;;;;42.00;33.40;;;;;;;7.80;40.17;103147.33;109229;1270;22749;-81
2022/03/19 07:23:16;;;;;;;44.90;34.00;;;;;;;7.91;39.33;103150.22;109154;1270;22590;-82
2022/03/19 07:26:14;;;;;;;39.10;33.30;;;;;;;8.19;39.87;103149.63;109202;1270;23597;-80
2022/03/19 07:29:25;;;;;;;43.10;35.80;;;;;;;8.67;39.58;103152.04;109140;1270;24309;-81
2022/03/19 07:32:20;;;;;;;48.70;36.80;;;;;;;9.04;38.50;103154.54;108987;1273;21993;-81
2022/03/19 07:35:11;;;;;;;45.70;37.10;;;;;;;9.35;37.85;103157.80;108863;1273;21991;-80
2022/03/19 07:38:23;;;;;;;45.20;36.10;;;;;;;9.64;37.18;103163.58;108979;1267;22002;-80
2022/03/19 07:41:49;;;;;;;59.40;47.20;;;;;;;9.87;36.35;103165.69;109474;1263;23072;-81
2022/03/19 07:44:50;;;;;;;50.90;41.90;;;;;;;10.01;35.47;103166.11;109669;1263;24286;-81
2022/03/19 07:47:28;;;;;;;53.70;41.50;;;;;;;10.17;35.67;103164.73;109581;1263;21975;-80
2022/03/19 07:50:07;;;;;;;48.40;37.70;;;;;;;10.29;34.87;103168.56;109868;1258;22036;-80
2022/03/19 07:53:00;;;;;;;37.60;32.10;;;;;;;10.26;33.58;103174.77;110346;1258;23648;-80
2022/03/19 07:55:54;;;;;;;30.40;23.90;;;;;;;10.21;34.11;103173.31;109988;1258;21979;-80
2022/03/19 07:58:29;;;;;;;28.50;24.50;;;;;;;10.33;33.66;103172.90;110292;1259;21963;-79
2022/03/19 08:01:04;;;;;;;27.80;22.60;;;;;;;10.47;33.19;103174.35;109365;1262;23115;-80
2022/03/19 08:03:39;;;;;;;29.40;22.30;;;;;;;10.53;32.43;103177.97;109571;1264;23833;-80
2022/03/19 08:06:11;;;;;;;25.10;20.80;;;;;;;10.47;32.03;103177.16;109585;1261;22221;-80
2022/03/19 08:08:52;;;;;;;27.40;24.40;;;;;;;10.49;31.78;103181.95;109828;1262;22020;-79
2022/03/19 08:11:40;;;;;;;26.60;20.50;;;;;;;10.30;31.17;103180.67;109482;1262;22001;-79
2022/03/19 08:14:18;;;;;;;27.30;21.50;;;;;;;10.16;31.47;103182.26;109473;1262;23729;-80
2022/03/19 08:16:48;;;;;;;24.60;19.60;;;;;;;10.24;31.82;103182.28;108799;1267;22941;-78
2022/03/19 08:19:25;;;;;;;23.70;19.90;;;;;;;10.52;32.12;103178.37;107471;1264;2571395;-78
2022/03/19 08:21:59;;;;;;;30.90;19.40;;;;;;;10.82;31.17;103183.66;109673;1264;23073;-77
2022/03/19 08:24:34;;;;;;;24.80;17.70;;;;;;;10.86;29.99;103187.16;109548;1264;21979;-77
2022/03/19 08:27:06;;;;;;;20.20;15.30;;;;;;;10.76;29.19;103187.25;109357;1262;22848;-78
2022/03/19 08:29:47;;;;;;;22.60;15.50;;;;;;;10.53;28.78;103194.39;109483;1262;21984;-78
2022/03/19 08:32:20;;;;;;;22.60;17.90;;;;;;;10.18;28.51;103191.27;109410;1263;23227;-79
2022/03/19 08:34:51;;;;;;;21.20;16.10;;;;;;;10.12;29.44;103186.71;109626;1264;23834;-79
2022/03/19 08:37:23;;;;;;;25.10;15.80;;;;;;;10.24;29.19;103188.79;109475;1261;21988;-78
2022/03/19 08:42:51;;;;;;;20.10;16.00;;;;;;;10.37;29.08;103189.40;109346;1263;22057;-79
2022/03/19 08:45:28;;;;;;;17.80;15.60;;;;;;;10.46;28.42;103189.20;109333;1264;21965;-78
2022/03/19 08:48:19;;;;;;;;;;;;;;;;;;;;;
2022/03/19 08:50:53;;;;;;;20.30;16.40;;;;;;;11.09;28.45;103182.64;108937;1267;23069;-81
2022/03/19 08:53:31;;;;;;;24.10;16.00;;;;;;;11.13;26.96;103191.30;109244;1270;22472;-74
2022/03/19 08:56:06;;;;;;;18.90;16.40;;;;;;;11.03;27.15;103190.56;109100;1267;21978;-77
2022/03/19 08:58:43;;;;;;;19.70;17.30;;;;;;;11.01;27.14;103191.42;109066;1267;21987;-79
2022/03/19 09:01:19;;;;;;;23.20;17.90;;;;;;;11.12;27.26;103191.80;109355;1264;21996;-81
2022/03/19 09:03:58;;;;;;;19.50;16.60;;;;;;;11.40;27.30;103190.95;108927;1270;22730;-79
2022/03/19 09:06:27;;;;;;;20.10;16.40;;;;;;;11.74;27.00;103191.29;108951;1264;21959;-79
2022/03/19 09:08:59;;;;;;;25.90;19.30;;;;;;;12.02;26.64;103190.40;109300;1263;21974;-78
2022/03/19 09:11:32;;;;;;;22.10;19.50;;;;;;;12.17;26.10;103193.41;109175;1264;23665;-77
2022/03/19 09:14:05;;;;;;;23.50;18.30;;;;;;;12.45;26.47;103189.59;109331;1264;22770;-78
2022/03/19 09:16:36;;;;;;;31.30;19.90;;;;;;;12.79;25.52;103189.66;109761;1264;22761;-78
2022/03/19 09:19:05;;;;;;;33.40;21.30;;;;;;;12.80;24.87;103192.96;109391;1264;22014;-78
2022/03/19 09:21:40;;;;;;;29.10;20.10;;;;;;;12.93;25.05;103184.34;109585;1259;21971;-77
2022/03/19 09:24:10;;;;;;;28.10;20.60;;;;;;;12.89;24.46;103186.27;110072;1258;21968;-80
2022/03/19 09:26:39;;;;;;;33.80;22.10;;;;;;;12.89;24.94;103186.80;110343;1256;21972;-81
2022/03/19 09:29:14;;;;;;;24.00;18.70;;;;;;;13.06;24.91;103190.81;110143;1257;21974;-78
2022/03/19 09:31:46;;;;;;;23.30;18.70;;;;;;;12.88;23.96;103185.98;109681;1262;23046;-78
2022/03/19 09:34:15;;;;;;;23.60;19.80;;;;;;;12.62;24.38;103179.38;109582;1264;22006;-78
2022/03/19 09:36:48;;;;;;;25.60;21.30;;;;;;;12.61;24.72;103180.33;109335;1264;21974;-78
2022/03/19 09:39:17;;;;;;;22.50;19.10;;;;;;;12.74;24.83;103185.39;109029;1267;22057;-78
2022/03/19 09:41:50;;;;;;;24.40;19.60;;;;;;;12.69;24.19;103190.73;108986;1267;23039;-78
2022/03/19 09:44:24;;;;;;;25.30;21.00;;;;;;;12.54;24.56;103182.84;108996;1267;23049;-77
2022/03/19 09:46:56;;;;;;;21.30;18.10;;;;;;;12.61;24.76;103187.20;108829;1273;21978;-79
2022/03/19 09:49:26;;;;;;;25.80;19.30;;;;;;;12.64;24.54;103188.41;108848;1270;23230;-78
2022/03/19 09:51:56;;;;;;;27.00;20.50;;;;;;;12.60;24.52;103187.11;108984;1269;22043;-78
2022/03/19 09:54:25;;;;;;;26.90;21.20;;;;;;;12.67;24.92;103188.05;108883;1270;23820;-78
2022/03/19 09:57:08;;;;;;;30.90;20.20;;;;;;;12.96;24.77;103188.22;108960;1270;23052;-78
2022/03/19 09:59:38;;;;;;;27.60;20.70;;;;;;;13.00;24.15;103191.05;108782;1273;22125;-78
2022/03/19 10:02:11;;;;;;;23.50;19.40;;;;;;;13.09;24.60;103189.02;108533;1273;21975;-78
2022/03/19 10:04:44;;;;;;;24.40;19.60;;;;;;;13.49;24.45;103193.23;109029;1263;23782;-77
2022/03/19 10:10:11;;;;;;;27.30;22.00;;;;;;;14.62;23.83;103187.52;109709;1263;21978;-79
2022/03/19 10:12:44;;;;;;;;;;;;;;;15.34;23.34;103190.73;109819;1264;22121;-78
2022/03/19 10:15:13;;;;;;;20.30;18.10;;;;;;;15.68;22.45;103191.95;109707;1264;22425;-78
2022/03/19 10:17:48;;;;;;;20.10;18.00;;;;;;;15.86;22.16;103199.33;109176;1265;21947;-77
2022/03/19 10:20:17;;;;;;;19.30;17.30;;;;;;;16.13;21.60;103197.47;109327;1265;21972;-79
2022/03/19 10:22:46;;;;;;;21.00;18.90;;;;;;;16.46;21.91;103188.66;109328;1265;21997;-77
2022/03/19 10:25:18;;;;;;;20.80;18.60;;;;;;;17.07;21.04;103187.59;109208;1267;21988;-78
2022/03/19 10:27:48;;;;;;;17.90;16.20;;;;;;;17.47;20.69;103181.05;108801;1273;21960;-78
2022/03/19 10:30:20;;;;;;;19.00;16.00;;;;;;;18.15;20.59;103173.13;108927;1273;23074;-79
2022/03/19 10:32:54;;;;;;;16.20;13.60;;;;;;;18.74;19.73;103174.66;108971;1273;22579;-79
2022/03/19 10:35:39;;;;;;;18.60;13.00;;;;;;;18.99;18.55;103177.53;108696;1273;21999;-78
2022/03/19 10:38:22;;;;;;;16.70;13.60;;;;;;;18.94;17.69;103179.80;108900;1273;21989;-79
2022/03/19 10:40:53;;;;;;;15.70;11.90;;;;;;;18.88;17.72;103174.86;108902;1273;22019;-78
2022/03/19 10:43:23;;;;;;;15.40;12.80;;;;;;;18.94;17.59;103169.05;108973;1268;22994;-78
2022/03/19 10:45:54;;;;;;;23.30;14.90;;;;;;;19.16;17.58;103161.32;109259;1267;21970;-81
2022/03/19 10:48:30;;;;;;;18.40;13.10;;;;;;;19.57;17.20;103164.21;109297;1267;22002;-79
2022/03/19 10:51:02;;;;;;;15.50;13.90;;;;;;;20.04;16.66;103164.55;108978;1271;21949;-80
2022/03/19 10:53:36;;;;;;;19.70;13.90;;;;;;;19.96;15.26;103160.97;109285;1267;22008;-79
2022/03/19 10:56:15;;;;;;;15.00;13.40;;;;;;;19.59;15.83;103165.47;108991;1267;22046;-79
2022/03/19 10:59:02;;;;;;;18.20;13.70;;;;;;;19.49;15.94;103163.96;109101;1267;23589;-79
2022/03/19 11:01:36;;;;;;;16.50;14.30;;;;;;;19.75;16.12;103160.29;109452;1262;21993;-79
2022/03/19 11:04:10;;;;;;;19.50;12.90;;;;;;;19.90;15.61;103149.04;109395;1265;23206;-81
2022/03/19 11:06:45;;;;;;;15.70;13.90;;;;;;;19.50;15.08;103145.55;109756;1263;22112;-79
2022/03/19 11:09:22;;;;;;;18.50;13.30;;;;;;;18.57;15.39;103143.98;109103;1269;23694;-79
2022/03/19 11:12:00;;;;;;;16.70;14.90;;;;;;;17.52;15.80;103135.48;108914;1267;21975;-79
2022/03/19 11:14:31;;;;;;;16.40;14.40;;;;;;;16.58;16.38;103145.30;109033;1270;23691;-78
2022/03/19 11:17:24;;;;;;;23.10;15.30;;;;;;;15.45;16.32;103135.97;109666;1264;21995;-79
2022/03/19 11:20:04;;;;;;;15.90;14.20;;;;;;;14.25;16.94;103130.55;109647;1264;23828;-79
2022/03/19 11:22:54;;;;;;;22.00;15.20;;;;;;;13.45;17.87;103125.71;109139;1268;24362;-79
2022/03/19 11:25:39;;;;;;;18.70;14.60;;;;;;;12.74;18.33;103126.80;108975;1271;21987;-80
2022/03/19 11:28:11;;;;;;;19.50;14.00;;;;;;;12.14;19.00;103128.23;109168;1265;22391;-80
2022/03/19 11:31:08;;;;;;;17.40;15.10;;;;;;;11.79;19.45;103125.95;109214;1265;21974;-81
2022/03/19 11:33:40;;;;;;;19.30;14.20;;;;;;;11.29;19.56;103125.01;109332;1265;23101;-79
2022/03/19 11:36:10;;;;;;;15.10;13.10;;;;;;;10.76;19.92;103123.42;109075;1268;23136;-78
2022/03/19 11:38:54;;;;;;;22.40;14.00;;;;;;;10.42;20.29;103118.80;109342;1265;22119;-78
2022/03/19 11:41:30;;;;;;;22.60;16.90;;;;;;;10.18;20.63;103112.89;109556;1264;23123;-79
2022/03/19 11:44:49;;;;;;;16.60;14.70;;;;;;;10.03;20.93;103115.27;110170;1259;21976;-78
2022/03/19 11:47:19;;;;;;;20.60;15.70;;;;;;;9.84;21.10;103118.05;109474;1265;22050;-78
2022/03/19 11:49:54;;;;;;;18.20;14.10;;;;;;;9.67;21.24;103117.30;109366;1265;22747;-78
2022/03/19 11:52:27;;;;;;;18.60;15.20;;;;;;;9.60;21.42;103111.77;108854;1270;21947;-79
2022/03/19 11:55:03;;;;;;;19.10;14.30;;;;;;;9.53;21.65;103110.46;109057;1270;22002;-79
2022/03/19 11:58:05;;;;;;;15.50;13.10;;;;;;;9.51;21.90;103113.36;108575;1275;23708;-79
2022/03/19 12:00:38;;;;;;;22.40;14.30;;;;;;;9.43;21.82;103109.98;109024;1273;24452;-79
2022/03/19 12:03:17;;;;;;;20.50;15.30;;;;;;;9.33;21.94;103108.66;108723;1273;22003;-79
2022/03/19 12:05:50;;;;;;;17.80;13.20;;;;;;;9.27;22.07;103113.42;108661;1273;23770;-80
2022/03/19 12:08:24;;;;;;;15.50;12.20;;;;;;;9.17;21.86;103113.28;108564;1273;22166;-78
2022/03/19 12:11:14;;;;;;;13.80;12.20;;;;;;;9.07;21.85;103110.20;108726;1270;21994;-79
2022/03/19 12:13:50;;;;;;;18.90;16.20;;;;;;;9.01;21.91;103111.98;108905;1270;23062;-79